createdAt,value
2019-04-01T00:00:20.515Z,4.86
2019-04-01T00:01:20.479Z,4.92
2019-04-01T00:02:20.469Z,4.94
2019-04-01T00:03:20.461Z,4.97
2019-04-01T00:04:20.448Z,4.97
2019-04-01T00:05:20.475Z,5.04
2019-04-01T00:06:20.426Z,5.07
2019-04-01T00:07:20.414Z,5.06
2019-04-01T00:08:20.409Z,5.03
2019-04-01T00:09:20.393Z,5.12
2019-04-01T00:10:20.383Z,5.03
2019-04-01T00:11:20.407Z,5.03
2019-04-01T00:12:20.360Z,4.92
2019-04-01T00:13:20.349Z,4.84
2019-04-01T00:14:20.338Z,4.99
2019-04-01T00:15:20.328Z,4.84
2019-04-01T00:16:20.317Z,4.94
2019-04-01T00:17:20.330Z,4.89
2019-04-01T00:18:20.298Z,4.91
2019-04-01T00:19:20.285Z,4.91
2019-04-01T00:20:20.273Z,4.82
2019-04-01T00:21:20.265Z,4.86
2019-04-01T00:22:20.288Z,4.70
2019-04-01T00:23:20.241Z,4.75
2019-04-01T00:24:20.233Z,4.67
2019-04-01T00:25:20.218Z,4.77
2019-04-01T00:26:20.210Z,4.73
2019-04-01T00:27:20.195Z,4.67
2019-04-01T00:28:20.212Z,4.72
2019-04-01T00:29:20.178Z,4.80
2019-04-01T00:30:20.166Z,4.69
2019-04-01T00:31:20.157Z,4.65
2019-04-01T00:32:20.144Z,4.60
2019-04-01T00:33:20.183Z,4.60
2019-04-01T00:34:20.122Z,4.50
2019-04-01T00:35:20.113Z,4.60
2019-04-01T00:36:20.101Z,4.62
2019-04-01T00:37:20.089Z,4.59
2019-04-01T00:38:20.078Z,4.66
2019-04-01T00:39:20.095Z,4.52
2019-04-01T00:40:20.058Z,4.50
2019-04-01T00:41:20.046Z,4.50
2019-04-01T00:42:20.035Z,4.48
2019-04-01T00:43:20.027Z,4.60
2019-04-01T00:44:20.050Z,4.47
2019-04-01T00:45:20.004Z,4.47
2019-04-01T00:46:19.992Z,4.42
2019-04-01T00:47:19.981Z,4.45
2019-04-01T00:48:19.970Z,4.41
2019-04-01T00:49:19.960Z,4.41
2019-04-01T00:50:19.973Z,4.42
2019-04-01T00:51:19.941Z,4.44
2019-04-01T00:52:19.929Z,4.44
2019-04-01T00:53:19.921Z,4.42
2019-04-01T00:54:19.907Z,4.44
2019-04-01T00:55:19.919Z,4.42
2019-04-01T00:56:19.883Z,4.37
2019-04-01T00:57:19.873Z,4.41
2019-04-01T00:58:19.860Z,4.42
2019-04-01T00:59:19.851Z,4.36
2019-04-01T01:00:19.876Z,4.36
2019-04-01T01:01:19.832Z,4.33
2019-04-01T01:02:19.819Z,4.33
2019-04-01T01:03:19.807Z,4.40
2019-04-01T01:04:19.797Z,4.29
2019-04-01T01:05:19.788Z,4.30
2019-04-01T01:06:19.810Z,4.26
2019-04-01T01:07:19.764Z,4.20
2019-04-01T01:08:19.752Z,4.09
2019-04-01T01:09:19.745Z,4.27
2019-04-01T01:10:19.737Z,4.18
2019-04-01T01:11:19.719Z,4.26
2019-04-01T01:12:19.734Z,4.22
2019-04-01T01:13:19.698Z,4.16
2019-04-01T01:14:19.686Z,4.22
2019-04-01T01:15:19.674Z,4.23
2019-04-01T01:16:19.667Z,4.14
2019-04-01T01:17:19.680Z,4.12
2019-04-01T01:18:19.642Z,4.15
2019-04-01T01:19:19.632Z,4.14
2019-04-01T01:20:19.621Z,4.18
2019-04-01T01:21:19.612Z,4.18
2019-04-01T01:22:19.641Z,4.20
2019-04-01T01:23:19.590Z,4.24
2019-04-01T01:24:19.580Z,4.24
2019-04-01T01:25:19.569Z,4.15
2019-04-01T01:26:19.558Z,4.16
2019-04-01T01:27:19.547Z,4.12
2019-04-01T01:28:19.573Z,4.11
2019-04-01T01:29:19.528Z,4.14
2019-04-01T01:30:19.515Z,4.16
2019-04-01T01:31:19.506Z,4.11
2019-04-01T01:32:19.500Z,4.16
2019-04-01T01:33:19.482Z,4.20
2019-04-01T01:34:19.494Z,4.08
2019-04-01T01:35:19.460Z,4.16
2019-04-01T01:36:19.450Z,4.08
2019-04-01T01:37:19.442Z,4.09
2019-04-01T01:38:19.429Z,4.09
2019-04-01T01:39:19.455Z,4.15
2019-04-01T01:40:19.406Z,4.04
2019-04-01T01:41:19.399Z,4.05
2019-04-01T01:42:19.386Z,4.02
2019-04-01T01:43:19.376Z,4.05
2019-04-01T01:44:19.364Z,3.97
2019-04-01T01:45:19.389Z,4.00
2019-04-01T01:46:19.343Z,4.00
2019-04-01T01:47:19.333Z,3.96
2019-04-01T01:48:19.321Z,3.91
2019-04-01T01:49:19.310Z,3.97
2019-04-01T01:50:19.301Z,3.98
2019-04-01T01:51:19.328Z,3.80
2019-04-01T01:52:19.279Z,3.78
2019-04-01T01:53:19.269Z,3.78
2019-04-01T01:54:19.259Z,3.83
2019-04-01T01:55:19.249Z,3.84
2019-04-01T01:56:19.237Z,3.79
2019-04-01T01:57:19.251Z,3.87
2019-04-01T01:58:19.217Z,3.90
2019-04-01T01:59:19.204Z,3.87
2019-04-01T02:00:19.193Z,3.78
2019-04-01T02:01:19.185Z,3.88
2019-04-01T02:02:19.198Z,3.94
2019-04-01T02:03:19.163Z,3.79
2019-04-01T02:04:19.153Z,3.86
2019-04-01T02:05:19.145Z,3.86
2019-04-01T02:06:19.131Z,3.80
2019-04-01T02:07:19.157Z,3.80
2019-04-01T02:08:19.109Z,3.86
2019-04-01T02:09:19.100Z,3.83
2019-04-01T02:10:19.094Z,3.78
2019-04-01T02:11:19.079Z,3.83
2019-04-01T02:12:19.068Z,3.83
2019-04-01T02:13:20.120Z,3.87
2019-04-01T02:14:19.046Z,3.84
2019-04-01T02:15:19.036Z,3.84
2019-04-01T02:16:19.030Z,3.86
2019-04-01T02:17:19.016Z,3.79
2019-04-01T02:18:19.043Z,3.70
2019-04-01T02:19:18.994Z,3.83
2019-04-01T02:20:18.982Z,3.76
2019-04-01T02:21:18.975Z,3.70
2019-04-01T02:22:18.961Z,3.61
2019-04-01T02:23:18.951Z,3.62
2019-04-01T02:24:18.964Z,3.66
2019-04-01T02:25:18.930Z,3.61
2019-04-01T02:26:18.919Z,3.65
2019-04-01T02:27:18.910Z,3.55
2019-04-01T02:28:18.898Z,3.68
2019-04-01T02:29:18.917Z,3.55
2019-04-01T02:30:18.878Z,3.55
2019-04-01T02:31:18.874Z,3.55
2019-04-01T02:32:18.857Z,3.60
2019-04-01T02:33:18.851Z,3.60
2019-04-01T02:34:18.873Z,3.52
2019-04-01T02:35:18.824Z,3.45
2019-04-01T02:36:18.827Z,3.65
2019-04-01T02:37:18.802Z,3.54
2019-04-01T02:38:18.792Z,3.55
2019-04-01T02:39:18.782Z,3.57
2019-04-01T02:40:21.940Z,3.61
2019-04-01T02:41:18.763Z,3.61
2019-04-01T02:42:18.750Z,3.66
2019-04-01T02:43:18.741Z,3.61
2019-04-01T02:44:18.726Z,3.61
2019-04-01T02:45:18.744Z,3.69
2019-04-01T02:46:18.707Z,3.65
2019-04-01T02:47:18.697Z,3.57
2019-04-01T02:48:18.689Z,3.61
2019-04-01T02:49:18.676Z,3.52
2019-04-01T02:50:18.690Z,3.50
2019-04-01T02:51:18.673Z,3.51
2019-04-01T02:52:18.653Z,3.57
2019-04-01T02:53:18.649Z,3.60
2019-04-01T02:54:18.624Z,3.58
2019-04-01T02:55:18.645Z,3.60
2019-04-01T02:56:18.600Z,3.51
2019-04-01T02:57:18.594Z,3.47
2019-04-01T02:58:18.581Z,3.51
2019-04-01T02:59:18.572Z,3.50
2019-04-01T03:00:18.595Z,3.54
2019-04-01T03:01:18.552Z,3.54
2019-04-01T03:02:18.544Z,3.48
2019-04-01T03:03:18.528Z,3.54
2019-04-01T03:04:18.523Z,3.50
2019-04-01T03:05:18.525Z,3.48
2019-04-01T03:06:18.532Z,3.52
2019-04-01T03:07:18.483Z,3.43
2019-04-01T03:08:18.474Z,3.55
2019-04-01T03:09:18.498Z,3.52
2019-04-01T03:10:18.450Z,3.51
2019-04-01T03:11:18.443Z,3.39
2019-04-01T03:12:18.460Z,3.39
2019-04-01T03:13:18.422Z,3.28
2019-04-01T03:14:18.409Z,3.32
2019-04-01T03:15:18.403Z,3.32
2019-04-01T03:16:18.394Z,3.36
2019-04-01T03:17:18.415Z,3.36
2019-04-01T03:18:18.367Z,3.39
2019-04-01T03:19:18.357Z,3.40
2019-04-01T03:20:18.343Z,3.40
2019-04-01T03:21:18.333Z,3.36
2019-04-01T03:22:18.335Z,3.29
2019-04-01T03:23:18.355Z,3.31
2019-04-01T03:24:18.303Z,3.28
2019-04-01T03:25:18.290Z,3.29
2019-04-01T03:26:18.289Z,3.15
2019-04-01T03:27:18.276Z,3.18
2019-04-01T03:28:18.296Z,3.14
2019-04-01T03:29:18.249Z,3.13
2019-04-01T03:30:18.243Z,3.10
2019-04-01T03:31:18.257Z,2.96
2019-04-01T03:32:18.219Z,2.99
2019-04-01T03:33:18.209Z,2.93
2019-04-01T03:34:18.225Z,2.93
2019-04-01T03:35:18.186Z,2.96
2019-04-01T03:36:18.175Z,2.99
2019-04-01T03:37:18.169Z,2.93
2019-04-01T03:38:18.154Z,2.93
2019-04-01T03:39:18.192Z,2.97
2019-04-01T03:40:18.132Z,2.95
2019-04-01T03:41:18.129Z,2.87
2019-04-01T03:42:18.110Z,2.96
2019-04-01T03:43:18.239Z,2.93
2019-04-01T03:44:18.089Z,2.97
2019-04-01T03:45:18.122Z,2.85
2019-04-01T03:46:18.066Z,2.87
2019-04-01T03:47:18.056Z,2.95
2019-04-01T03:48:18.046Z,2.89
2019-04-01T03:49:18.037Z,2.85
2019-04-01T03:50:18.047Z,2.95
2019-04-01T03:51:18.014Z,2.89
2019-04-01T03:52:18.003Z,2.89
2019-04-01T03:53:17.994Z,2.87
2019-04-01T03:54:17.984Z,2.78
2019-04-01T03:55:17.996Z,2.77
2019-04-01T03:56:17.958Z,2.77
2019-04-01T03:57:17.949Z,2.85
2019-04-01T03:58:17.938Z,2.75
2019-04-01T03:59:17.939Z,2.82
2019-04-01T04:00:17.943Z,2.81
2019-04-01T04:01:17.905Z,2.75
2019-04-01T04:02:17.896Z,2.74
2019-04-01T04:03:17.884Z,2.61
2019-04-01T04:04:17.876Z,2.71
2019-04-01T04:05:17.900Z,2.63
2019-04-01T04:06:17.850Z,2.66
2019-04-01T04:07:17.841Z,2.64
2019-04-01T04:08:17.830Z,2.59
2019-04-01T04:09:17.819Z,2.53
2019-04-01T04:10:17.809Z,2.56
2019-04-01T04:11:17.825Z,2.56
2019-04-01T04:12:17.794Z,2.63
2019-04-01T04:13:17.778Z,2.56
2019-04-01T04:14:17.765Z,2.56
2019-04-01T04:15:17.755Z,2.54
2019-04-01T04:16:17.773Z,2.59
2019-04-01T04:17:17.736Z,2.46
2019-04-01T04:18:17.724Z,2.49
2019-04-01T04:19:17.714Z,2.53
2019-04-01T04:20:17.703Z,2.42
2019-04-01T04:21:17.729Z,2.41
2019-04-01T04:22:17.680Z,2.54
2019-04-01T04:23:17.686Z,2.56
2019-04-01T04:24:17.662Z,2.56
2019-04-01T04:25:17.646Z,2.38
2019-04-01T04:26:17.638Z,2.53
2019-04-01T04:27:17.657Z,2.48
2019-04-01T04:28:17.616Z,2.56
2019-04-01T04:29:17.611Z,2.52
2019-04-01T04:30:17.597Z,2.43
2019-04-01T04:31:17.586Z,2.54
2019-04-01T04:32:17.614Z,2.39
2019-04-01T04:33:17.564Z,2.60
2019-04-01T04:34:17.560Z,2.49
2019-04-01T04:35:17.546Z,2.54
2019-04-01T04:36:17.535Z,2.56
2019-04-01T04:37:17.520Z,2.61
2019-04-01T04:38:17.546Z,2.61
2019-04-01T04:39:17.501Z,2.48
2019-04-01T04:40:17.489Z,2.56
2019-04-01T04:41:17.477Z,2.56
2019-04-01T04:42:17.467Z,2.53
2019-04-01T04:43:17.457Z,2.60
2019-04-01T04:44:17.470Z,2.57
2019-04-01T04:45:17.436Z,2.59
2019-04-01T04:46:20.849Z,2.53
2019-04-01T04:47:17.416Z,2.64
2019-04-01T04:48:17.405Z,2.56
2019-04-01T04:49:17.430Z,2.64
2019-04-01T04:50:17.382Z,2.64
2019-04-01T04:51:17.373Z,2.66
2019-04-01T04:52:17.361Z,2.60
2019-04-01T04:53:17.351Z,2.67
2019-04-01T04:54:17.340Z,2.67
2019-04-01T04:55:17.354Z,2.69
2019-04-01T04:56:17.320Z,2.66
2019-04-01T04:57:20.270Z,2.64
2019-04-01T04:58:17.301Z,2.72
2019-04-01T04:59:17.286Z,2.64
2019-04-01T05:00:17.302Z,2.72
2019-04-01T05:01:17.267Z,2.77
2019-04-01T05:02:17.256Z,2.69
2019-04-01T05:03:17.245Z,2.77
2019-04-01T05:04:17.235Z,2.74
2019-04-01T05:05:17.252Z,2.72
2019-04-01T05:06:17.216Z,2.81
2019-04-01T05:07:17.202Z,2.78
2019-04-01T05:08:17.193Z,2.81
2019-04-01T05:09:17.199Z,2.79
2019-04-01T05:10:17.205Z,2.82
2019-04-01T05:11:17.164Z,2.93
2019-04-01T05:12:17.153Z,2.90
2019-04-01T05:13:17.138Z,2.89
2019-04-01T05:14:17.171Z,2.79
2019-04-01T05:15:17.155Z,2.90
2019-04-01T05:16:17.108Z,2.89
2019-04-01T05:17:17.101Z,2.92
2019-04-01T05:18:17.086Z,2.93
2019-04-01T05:19:17.080Z,2.96
2019-04-01T05:20:17.065Z,2.93
2019-04-01T05:21:17.088Z,2.93
2019-04-01T05:22:17.046Z,2.96
2019-04-01T05:23:17.033Z,2.90
2019-04-01T05:24:17.025Z,2.95
2019-04-01T05:25:17.012Z,2.95
2019-04-01T05:26:17.040Z,2.92
2019-04-01T05:27:17.019Z,2.89
2019-04-01T05:28:16.981Z,2.90
2019-04-01T05:29:16.971Z,2.90
2019-04-01T05:30:16.960Z,2.95
2019-04-01T05:31:16.950Z,2.97
2019-04-01T05:32:16.982Z,2.96
2019-04-01T05:33:16.927Z,3.00
2019-04-01T05:34:16.919Z,3.05
2019-04-01T05:35:16.911Z,3.00
2019-04-01T05:36:16.896Z,3.06
2019-04-01T05:37:16.885Z,3.18
2019-04-01T05:38:16.901Z,3.14
2019-04-01T05:39:16.864Z,3.17
2019-04-01T05:40:16.854Z,3.13
2019-04-01T05:41:16.881Z,3.15
2019-04-01T05:42:16.830Z,3.18
2019-04-01T05:43:16.858Z,3.20
2019-04-01T05:44:16.810Z,3.10
2019-04-01T05:45:16.803Z,3.13
2019-04-01T05:46:16.794Z,3.24
2019-04-01T05:47:16.779Z,3.31
2019-04-01T05:48:16.767Z,3.33
2019-04-01T05:49:16.786Z,3.32
2019-04-01T05:50:16.745Z,3.36
2019-04-01T05:51:16.734Z,3.39
2019-04-01T05:52:16.763Z,3.42
2019-04-01T05:53:16.713Z,3.51
2019-04-01T05:54:16.738Z,3.51
2019-04-01T05:55:16.693Z,3.52
2019-04-01T05:56:16.681Z,3.66
2019-04-01T05:57:16.673Z,3.52
2019-04-01T05:58:16.659Z,3.61
2019-04-01T05:59:16.650Z,3.73
2019-04-01T06:00:16.663Z,3.68
2019-04-01T06:01:16.629Z,3.69
2019-04-01T06:02:16.618Z,3.73
2019-04-01T06:03:16.607Z,3.73
2019-04-01T06:04:16.595Z,3.79
2019-04-01T06:05:16.611Z,3.86
2019-04-01T06:06:16.575Z,3.83
2019-04-01T06:07:16.564Z,3.88
2019-04-01T06:08:16.553Z,3.83
2019-04-01T06:09:16.629Z,3.96
2019-04-01T06:10:16.559Z,3.96
2019-04-01T06:11:16.523Z,4.00
2019-04-01T06:12:16.512Z,4.11
2019-04-01T06:13:16.539Z,4.14
2019-04-01T06:14:16.490Z,4.08
2019-04-01T06:15:16.505Z,4.22
2019-04-01T06:16:16.468Z,4.26
2019-04-01T06:17:16.458Z,4.26
2019-04-01T06:18:16.447Z,4.30
2019-04-01T06:19:16.439Z,4.34
2019-04-01T06:20:16.465Z,4.47
2019-04-01T06:21:16.417Z,4.44
2019-04-01T06:22:16.406Z,4.50
2019-04-01T06:23:16.397Z,4.55
2019-04-01T06:24:16.387Z,4.62
2019-04-01T06:25:16.380Z,4.54
2019-04-01T06:26:16.400Z,4.69
2019-04-01T06:27:16.743Z,4.80
2019-04-01T06:28:16.344Z,4.73
2019-04-01T06:29:16.338Z,4.86
2019-04-01T06:30:16.321Z,4.94
2019-04-01T06:31:16.310Z,4.85
2019-04-01T06:32:16.334Z,4.96
2019-04-01T06:33:16.287Z,4.96
2019-04-01T06:34:16.278Z,4.97
2019-04-01T06:35:16.265Z,5.02
2019-04-01T06:36:16.255Z,4.99
2019-04-01T06:37:16.244Z,5.02
2019-04-01T06:38:16.259Z,5.04
2019-04-01T06:39:16.227Z,4.99
2019-04-01T06:40:16.210Z,4.91
2019-04-01T06:41:16.202Z,5.03
2019-04-01T06:42:16.188Z,5.06
2019-04-01T06:43:16.215Z,5.07
2019-04-01T06:44:16.167Z,5.13
2019-04-01T06:45:16.161Z,5.07
2019-04-01T06:46:16.148Z,5.07
2019-04-01T06:47:16.166Z,5.18
2019-04-01T06:48:16.125Z,5.22
2019-04-01T06:49:16.139Z,5.27
2019-04-01T06:50:16.103Z,5.28
2019-04-01T06:51:16.095Z,5.40
2019-04-01T06:52:16.084Z,5.30
2019-04-01T06:53:16.072Z,5.36
2019-04-01T06:54:16.099Z,5.39
2019-04-01T06:55:16.051Z,5.38
2019-04-01T06:56:16.038Z,5.36
2019-04-01T06:57:16.029Z,5.35
2019-04-01T06:58:16.018Z,5.46
2019-04-01T06:59:16.010Z,5.45
2019-04-01T07:00:16.022Z,5.40
2019-04-01T07:01:15.985Z,5.46
2019-04-01T07:02:15.973Z,5.58
2019-04-01T07:03:18.615Z,5.56
2019-04-01T07:04:15.953Z,5.67
2019-04-01T07:05:15.970Z,5.65
2019-04-01T07:06:15.931Z,5.71
2019-04-01T07:07:19.176Z,5.65
2019-04-01T07:08:15.910Z,5.64
2019-04-01T07:09:15.906Z,5.71
2019-04-01T07:10:15.915Z,5.79
2019-04-01T07:11:15.878Z,5.76
2019-04-01T07:12:15.935Z,5.71
2019-04-01T07:13:15.856Z,5.68
2019-04-01T07:14:15.846Z,5.72
2019-04-01T07:15:15.872Z,5.79
2019-04-01T07:16:16.339Z,5.79
2019-04-01T07:17:15.815Z,5.75
2019-04-01T07:18:15.803Z,5.78
2019-04-01T07:19:15.792Z,5.78
2019-04-01T07:20:15.782Z,5.72
2019-04-01T07:21:15.804Z,5.85
2019-04-01T07:22:15.761Z,5.94
2019-04-01T07:23:15.748Z,5.94
2019-04-01T07:24:15.739Z,5.91
2019-04-01T07:25:15.729Z,5.93
2019-04-01T07:26:15.752Z,5.91
2019-04-01T07:27:15.706Z,6.03
2019-04-01T07:28:15.696Z,6.00
2019-04-01T07:29:15.687Z,6.00
2019-04-01T07:30:15.675Z,6.17
2019-04-01T07:31:15.662Z,6.22
2019-04-01T07:32:15.688Z,6.36
2019-04-01T07:33:15.642Z,6.46
2019-04-01T07:34:15.631Z,6.46
2019-04-01T07:35:15.623Z,6.44
2019-04-01T07:36:15.610Z,6.51
2019-04-01T07:37:15.599Z,6.58
2019-04-01T07:38:15.612Z,6.62
2019-04-01T07:39:15.579Z,6.71
2019-04-01T07:40:15.574Z,6.79
2019-04-01T07:41:15.558Z,6.76
2019-04-01T07:42:15.547Z,6.85
2019-04-01T07:43:15.572Z,6.74
2019-04-01T07:44:15.527Z,6.84
2019-04-01T07:45:15.515Z,6.85
2019-04-01T07:46:15.504Z,6.87
2019-04-01T07:47:15.495Z,6.92
2019-04-01T07:48:15.483Z,6.87
2019-04-01T07:49:15.501Z,6.79
2019-04-01T07:50:15.463Z,6.76
2019-04-01T07:51:15.478Z,6.84
2019-04-01T07:52:15.440Z,6.91
2019-04-01T07:53:15.429Z,7.03
2019-04-01T07:54:18.450Z,7.05
2019-04-01T07:55:15.409Z,7.09
2019-04-01T07:56:15.402Z,7.10
2019-04-01T07:57:15.383Z,7.23
2019-04-01T07:58:15.373Z,7.13
2019-04-01T07:59:15.363Z,7.16
2019-04-01T08:00:15.376Z,7.17
2019-04-01T08:01:15.340Z,7.17
2019-04-01T08:02:15.329Z,7.16
2019-04-01T08:03:15.319Z,7.05
2019-04-01T08:04:15.316Z,7.07
2019-04-01T08:05:15.321Z,7.07
2019-04-01T08:06:15.291Z,7.09
2019-04-01T08:07:15.275Z,7.05
2019-04-01T08:08:15.263Z,7.03
2019-04-01T08:09:15.252Z,7.17
2019-04-01T08:10:15.273Z,7.20
2019-04-01T08:11:15.306Z,7.37
2019-04-01T08:12:15.226Z,7.35
2019-04-01T08:13:15.209Z,7.35
2019-04-01T08:14:15.198Z,7.37
2019-04-01T08:15:15.214Z,7.42
2019-04-01T08:16:15.200Z,7.48
2019-04-01T08:17:15.166Z,7.53
2019-04-01T08:18:15.154Z,7.53
2019-04-01T08:19:15.151Z,7.46
2019-04-01T08:20:15.167Z,7.48
2019-04-01T08:21:15.122Z,7.49
2019-04-01T08:22:15.112Z,7.48
2019-04-01T08:23:15.110Z,7.48
2019-04-01T08:24:15.090Z,7.55
2019-04-01T08:25:15.083Z,7.61
2019-04-01T08:26:15.106Z,7.55
2019-04-01T08:27:15.057Z,7.40
2019-04-01T08:28:15.053Z,7.32
2019-04-01T08:29:29.183Z,7.37
2019-04-01T08:30:16.024Z,7.52
2019-04-01T08:31:15.015Z,7.69
2019-04-01T08:32:15.044Z,7.80
2019-04-01T08:33:14.994Z,7.82
2019-04-01T08:34:14.983Z,7.97
2019-04-01T08:35:14.972Z,7.97
2019-04-01T08:36:14.964Z,7.97
2019-04-01T08:37:14.951Z,7.98
2019-04-01T08:38:14.991Z,7.97
2019-04-01T08:39:14.945Z,8.01
2019-04-01T08:40:14.920Z,8.01
2019-04-01T08:41:14.912Z,8.05
2019-04-01T08:42:14.905Z,8.04
2019-04-01T08:43:14.918Z,8.16
2019-04-01T08:44:14.877Z,8.11
2019-04-01T08:45:14.869Z,8.20
2019-04-01T08:46:14.853Z,8.16
2019-04-01T08:47:14.844Z,8.25
2019-04-01T08:48:14.869Z,8.18
2019-04-01T08:49:14.823Z,8.20
2019-04-01T08:50:14.813Z,8.33
2019-04-01T08:51:14.802Z,8.33
2019-04-01T08:52:14.796Z,8.41
2019-04-01T08:53:14.781Z,8.41
2019-04-01T08:54:14.809Z,8.47
2019-04-01T08:55:14.763Z,8.43
2019-04-01T08:56:14.749Z,8.43
2019-04-01T08:57:14.738Z,8.43
2019-04-01T08:58:14.730Z,8.40
2019-04-01T08:59:14.718Z,8.48
2019-04-01T09:00:14.730Z,8.52
2019-04-01T09:01:14.709Z,8.50
2019-04-01T09:02:18.038Z,8.59
2019-04-01T09:03:14.677Z,8.63
2019-04-01T09:04:14.664Z,8.58
2019-04-01T09:05:14.733Z,8.45
2019-04-01T09:06:14.644Z,8.40
2019-04-01T09:07:14.631Z,8.45
2019-04-01T09:08:14.630Z,8.52
2019-04-01T09:09:14.609Z,8.56
2019-04-01T09:10:14.622Z,8.50
2019-04-01T09:11:14.592Z,8.40
2019-04-01T09:12:14.576Z,8.48
2019-04-01T09:13:14.567Z,8.41
2019-04-01T09:14:14.554Z,8.40
2019-04-01T09:15:14.589Z,8.55
2019-04-01T09:16:14.535Z,8.63
2019-04-01T09:17:14.520Z,8.61
2019-04-01T09:18:14.511Z,8.79
2019-04-01T09:19:14.501Z,8.73
2019-04-01T09:20:14.525Z,8.91
2019-04-01T09:21:14.477Z,8.73
2019-04-01T09:22:14.467Z,8.83
2019-04-01T09:23:14.456Z,8.83
2019-04-01T09:24:14.446Z,8.96
2019-04-01T09:25:14.436Z,8.99
2019-04-01T09:26:14.524Z,9.08
2019-04-01T09:27:14.417Z,9.02
2019-04-01T09:28:14.411Z,9.10
2019-04-01T09:29:14.391Z,9.13
2019-04-01T09:30:14.381Z,8.95
2019-04-01T09:31:14.406Z,8.87
2019-04-01T09:32:14.361Z,8.89
2019-04-01T09:33:14.350Z,8.91
2019-04-01T09:34:14.337Z,8.98
2019-04-01T09:35:14.327Z,9.08
2019-04-01T09:36:14.316Z,9.17
2019-04-01T09:37:14.329Z,9.21
2019-04-01T09:38:14.294Z,9.26
2019-04-01T09:39:14.290Z,9.23
2019-04-01T09:40:14.275Z,9.10
2019-04-01T09:41:14.263Z,8.89
2019-04-01T09:42:14.277Z,9.01
2019-04-01T09:43:14.544Z,9.01
2019-04-01T09:44:14.231Z,9.05
2019-04-01T09:45:14.221Z,9.18
2019-04-01T09:46:14.212Z,9.28
2019-04-01T09:47:14.234Z,9.33
2019-04-01T09:48:14.208Z,9.40
2019-04-01T09:49:14.178Z,9.39
2019-04-01T09:50:14.170Z,9.53
2019-04-01T09:51:14.157Z,9.57
2019-04-01T09:52:14.150Z,9.65
2019-04-01T09:53:14.162Z,9.65
2019-04-01T09:54:14.133Z,9.69
2019-04-01T09:55:14.114Z,9.56
2019-04-01T09:56:14.107Z,9.39
2019-04-01T09:57:17.675Z,9.35
2019-04-01T09:58:14.115Z,9.33
2019-04-01T09:59:14.073Z,9.43
2019-04-01T10:00:14.061Z,9.36
2019-04-01T10:01:14.052Z,9.31
2019-04-01T10:02:14.040Z,9.32
2019-04-01T10:03:14.065Z,9.26
2019-04-01T10:04:14.020Z,9.38
2019-04-01T10:05:14.010Z,9.56
2019-04-01T10:06:13.998Z,9.57
2019-04-01T10:07:13.989Z,9.61
2019-04-01T10:08:13.982Z,9.75
2019-04-01T10:09:13.990Z,9.50
2019-04-01T10:10:13.955Z,9.61
2019-04-01T10:11:13.960Z,9.66
2019-04-01T10:12:13.936Z,9.75
2019-04-01T10:13:13.924Z,9.71
2019-04-01T10:14:13.940Z,9.75
2019-04-01T10:15:13.900Z,9.75
2019-04-01T10:16:13.891Z,9.72
2019-04-01T10:17:13.882Z,9.74
2019-04-01T10:18:13.872Z,9.86
2019-04-01T10:19:13.895Z,9.86
2019-04-01T10:20:13.848Z,9.90
2019-04-01T10:21:13.837Z,9.74
2019-04-01T10:22:13.827Z,9.72
2019-04-01T10:23:13.814Z,9.74
2019-04-01T10:24:13.818Z,9.84
2019-04-01T10:25:13.817Z,9.79
2019-04-01T10:26:13.848Z,9.75
2019-04-01T10:27:13.773Z,9.76
2019-04-01T10:28:13.766Z,9.86
2019-04-01T10:29:13.752Z,9.89
2019-04-01T10:30:13.767Z,10.02
2019-04-01T10:31:13.730Z,10.04
2019-04-01T10:32:13.718Z,10.07
2019-04-01T10:33:13.708Z,10.20
2019-04-01T10:34:13.715Z,10.15
2019-04-01T10:35:13.810Z,10.36
2019-04-01T10:36:13.675Z,10.25
2019-04-01T10:37:13.664Z,10.32
2019-04-01T10:38:13.652Z,10.25
2019-04-01T10:39:13.650Z,10.45
2019-04-01T10:40:13.670Z,10.45
2019-04-01T10:41:13.622Z,10.51
2019-04-01T10:42:13.609Z,10.63
2019-04-01T10:43:13.597Z,10.56
2019-04-01T10:44:13.586Z,10.60
2019-04-01T10:45:13.581Z,10.71
2019-04-01T10:46:13.591Z,10.82
2019-04-01T10:47:13.556Z,11.03
2019-04-01T10:48:13.562Z,11.14
2019-04-01T10:49:13.542Z,11.14
2019-04-01T10:50:13.555Z,11.39
2019-04-01T10:51:13.549Z,11.43
2019-04-01T10:52:13.534Z,11.52
2019-04-01T10:53:13.518Z,11.55
2019-04-01T10:54:13.551Z,11.60
2019-04-01T10:55:13.526Z,11.73
2019-04-01T10:56:13.549Z,11.62
2019-04-01T10:57:13.478Z,11.67
2019-04-01T10:58:13.436Z,11.61
2019-04-01T10:59:13.478Z,11.37
2019-04-01T11:00:13.465Z,11.37
2019-04-01T11:01:13.495Z,11.52
2019-04-01T11:02:13.478Z,11.64
2019-04-01T11:03:13.522Z,11.82
2019-04-01T11:04:13.464Z,11.61
2019-04-01T11:05:13.474Z,11.58
2019-04-01T11:06:13.360Z,11.70
2019-04-01T11:07:13.417Z,11.82
2019-04-01T11:08:13.373Z,11.95
2019-04-01T11:09:13.388Z,12.09
2019-04-01T11:10:13.329Z,12.28
2019-04-01T11:11:13.299Z,12.35
2019-04-01T11:12:13.289Z,12.47
2019-04-01T11:13:13.399Z,12.75
2019-04-01T11:14:13.268Z,13.45
2019-04-01T11:15:15.639Z,14.10
2019-04-01T11:16:13.242Z,14.77
2019-04-01T11:17:13.235Z,15.31
2019-04-01T11:18:13.222Z,15.78
2019-04-01T11:19:13.233Z,16.00
2019-04-01T11:20:13.218Z,16.28
2019-04-01T11:21:13.187Z,16.48
2019-04-01T11:22:13.178Z,16.82
2019-04-01T11:23:13.165Z,16.97
2019-04-01T11:24:13.179Z,16.78
2019-04-01T11:25:13.143Z,17.16
2019-04-01T11:26:13.141Z,17.46
2019-04-01T11:27:13.123Z,17.66
2019-04-01T11:28:13.111Z,17.81
2019-04-01T11:29:13.140Z,17.93
2019-04-01T11:30:13.905Z,18.25
2019-04-01T11:31:13.114Z,18.66
2019-04-01T11:32:13.748Z,18.84
2019-04-01T11:33:13.058Z,18.82
2019-04-01T11:34:13.080Z,19.08
2019-04-01T11:35:13.071Z,19.31
2019-04-01T11:36:13.912Z,19.39
2019-04-01T11:37:13.039Z,19.56
2019-04-01T11:38:13.017Z,19.94
2019-04-01T11:39:13.019Z,19.78
2019-04-01T11:40:13.053Z,20.06
2019-04-01T11:41:12.976Z,20.28
2019-04-01T11:42:12.999Z,20.50
2019-04-01T11:43:12.975Z,20.73
2019-04-01T11:44:12.979Z,20.87
2019-04-01T11:45:12.983Z,21.13
2019-04-01T11:46:13.061Z,21.31
2019-04-01T11:47:12.956Z,21.16
2019-04-01T11:48:12.961Z,21.12
2019-04-01T11:49:12.902Z,20.76
2019-04-01T11:50:13.021Z,20.73
2019-04-01T11:51:12.882Z,20.85
2019-04-01T11:52:15.543Z,21.06
2019-04-01T11:53:12.843Z,20.61
2019-04-01T11:54:12.832Z,19.96
2019-04-01T11:55:12.847Z,18.69
2019-04-01T11:56:12.821Z,18.73
2019-04-01T11:57:12.802Z,19.16
2019-04-01T11:58:12.790Z,19.69
2019-04-01T11:59:12.782Z,20.16
2019-04-01T12:00:13.503Z,20.36
2019-04-01T12:01:12.761Z,20.61
2019-04-01T12:02:12.746Z,20.41
2019-04-01T12:03:12.737Z,20.43
2019-04-01T12:04:12.726Z,19.98
2019-04-01T12:05:12.723Z,20.59
2019-04-01T12:06:12.752Z,20.61
2019-04-01T12:07:12.697Z,19.87
2019-04-01T12:08:12.684Z,20.16
2019-04-01T12:09:12.672Z,19.91
2019-04-01T12:10:12.664Z,19.07
2019-04-01T12:11:12.677Z,19.29
2019-04-01T12:12:23.386Z,19.36
2019-04-01T12:13:13.630Z,19.51
2019-04-01T12:14:12.628Z,19.61
2019-04-01T12:15:12.843Z,20.26
2019-04-01T12:16:12.644Z,20.79
2019-04-01T12:17:12.599Z,21.32
2019-04-01T12:18:12.579Z,21.44
2019-04-01T12:19:12.585Z,21.83
2019-04-01T12:20:12.559Z,22.21
2019-04-01T12:21:12.548Z,22.37
2019-04-01T12:22:12.572Z,22.57
2019-04-01T12:23:12.595Z,22.65
2019-04-01T12:24:12.598Z,22.75
2019-04-01T12:25:12.508Z,22.68
2019-04-01T12:26:15.232Z,22.98
2019-04-01T12:27:12.487Z,22.61
2019-04-01T12:28:12.606Z,21.86
2019-04-01T12:29:13.529Z,21.62
2019-04-01T12:30:12.454Z,20.77
2019-04-01T12:31:12.992Z,20.17
2019-04-01T12:32:12.435Z,19.33
2019-04-01T12:33:12.460Z,20.05
2019-04-01T12:34:12.414Z,20.62
2019-04-01T12:35:12.405Z,20.89
2019-04-01T12:36:12.391Z,20.72
2019-04-01T12:37:12.379Z,21.17
2019-04-01T12:38:12.371Z,21.16
2019-04-01T12:39:12.398Z,20.47
2019-04-01T12:40:12.352Z,20.33
2019-04-01T12:41:12.339Z,19.74
2019-04-01T12:42:12.337Z,20.35
2019-04-01T12:43:12.331Z,20.92
2019-04-01T12:44:12.336Z,21.53
2019-04-01T12:45:12.300Z,21.83
2019-04-01T12:46:12.290Z,21.90
2019-04-01T12:47:12.279Z,22.17
2019-04-01T12:48:12.270Z,22.15
2019-04-01T12:49:12.326Z,22.06
2019-04-01T12:50:12.247Z,22.37
2019-04-01T12:51:12.238Z,22.54
2019-04-01T12:52:12.230Z,22.77
2019-04-01T12:53:12.216Z,22.45
2019-04-01T12:54:12.207Z,21.80
2019-04-01T12:55:12.229Z,20.67
2019-04-01T12:56:12.193Z,20.61
2019-04-01T12:57:12.181Z,20.58
2019-04-01T12:58:12.167Z,20.91
2019-04-01T12:59:12.161Z,21.50
2019-04-01T13:00:12.179Z,21.84
2019-04-01T13:01:12.136Z,22.12
2019-04-01T13:02:12.145Z,22.55
2019-04-01T13:03:12.120Z,22.43
2019-04-01T13:04:12.106Z,22.86
2019-04-01T13:05:12.127Z,22.55
2019-04-01T13:06:12.085Z,22.70
2019-04-01T13:07:12.078Z,21.44
2019-04-01T13:08:12.064Z,21.07
2019-04-01T13:09:12.055Z,20.91
2019-04-01T13:10:12.069Z,20.67
2019-04-01T13:11:12.033Z,20.73
2019-04-01T13:12:12.024Z,20.59
2019-04-01T13:13:13.057Z,20.97